Notice: Undefined index: language in D:\xampp\htdocs\vam\index.php on line 25
Open Air Virtual

 METAR AND TAF INFORMATION
METAR FOR ESNN
ADDS - METARS form results

(2220 UTC 14 December 2019)
Data provider http://aviationweather.gov/metar/data/
 
METAR text: ESNN 142150Z AUTO 10010KT 080V140 9999 DZ OVC007/// 02/02 Q0990
Conditions at: ESNN (SUNDSVALL/HARNOS, SE) observed 2150 UTC 14 December 2019
Temperature: 2.0°C (36°F)
Dewpoint: 2.0°C (36°F) [RH = 100%]
Pressure (altimeter): 29.23 inches Hg (990.0 mb)
Winds: from the E (100 degrees) at 12 MPH (10 knots; 5.1 m/s)
Visibility: 6 or more miles (10+ km)
Ceiling: 700 feet AGL
Clouds: overcast cloud deck at 700 feet AGL
Weather: DZ  (moderate drizzle)

 AIRPORT MAP

 RUNWAY INFORMATION
Runway 16 Runway length 6857 ft Runway width 148 ft
Runway elevation 16 ft Runway displaced threshold 492 ft Runway heading 160
Runway 34 Runway length 6857 ft Runway width 148 ft
Runway elevation 12 ft Runway displaced threshold 459 ft Runway heading 340

 AIRPORT FREQUENCIES
Type ATIS Name ATIS Frequency 127.4 MHZ
Type TWR Name TWR Frequency 129.55 MHZ

 AIRPORT NEAR NAVIGATION AIDS
Type VOR-DME Name Sundsvall Frequency 113100 KHZ



Powered by Virtual Airlines Manager [v2.6.2]